createdAt,value
2016-05-13T00:00:44.620Z,949.77
2016-05-13T00:01:44.623Z,949.79
2016-05-13T00:02:44.625Z,949.76
2016-05-13T00:03:44.628Z,949.78
2016-05-13T00:04:44.616Z,949.8
2016-05-13T00:05:44.650Z,949.72
2016-05-13T00:06:44.636Z,949.71
2016-05-13T00:07:44.624Z,949.74
2016-05-13T00:08:44.627Z,949.73
2016-05-13T00:09:44.629Z,949.81
2016-05-13T00:10:44.632Z,949.76
2016-05-13T00:11:44.619Z,949.75
2016-05-13T00:12:44.622Z,949.78
2016-05-13T00:13:44.624Z,949.75
2016-05-13T00:14:44.627Z,949.77
2016-05-13T00:15:44.614Z,949.68
2016-05-13T00:16:44.617Z,949.75
2016-05-13T00:17:44.634Z,949.78
2016-05-13T00:18:44.622Z,949.74
2016-05-13T00:19:44.626Z,949.76
2016-05-13T00:20:44.628Z,949.69
2016-05-13T00:21:44.631Z,949.73
2016-05-13T00:22:44.633Z,949.71
2016-05-13T00:23:44.636Z,949.73
2016-05-13T00:24:44.623Z,949.62
2016-05-13T00:25:44.625Z,949.65
2016-05-13T00:26:44.628Z,949.72
2016-05-13T00:27:44.631Z,949.69
2016-05-13T00:28:44.633Z,949.66
2016-05-13T00:29:44.620Z,949.71
2016-05-13T00:30:44.623Z,949.69
2016-05-13T00:31:44.625Z,949.66
2016-05-13T00:32:44.629Z,949.69
2016-05-13T00:33:44.631Z,949.72
2016-05-13T00:34:44.634Z,949.72
2016-05-13T00:35:44.636Z,949.65
2016-05-13T00:36:44.639Z,949.66
2016-05-13T00:37:44.626Z,949.7
2016-05-13T00:38:44.629Z,949.66
2016-05-13T00:39:44.632Z,949.72
2016-05-13T00:40:44.635Z,949.7
2016-05-13T00:41:44.638Z,949.7
2016-05-13T00:42:44.640Z,949.73
2016-05-13T00:43:44.643Z,949.7
2016-05-13T00:44:44.645Z,949.63
2016-05-13T00:45:44.632Z,949.66
2016-05-13T00:46:44.635Z,949.66
2016-05-13T00:47:44.669Z,949.6
2016-05-13T00:48:44.640Z,949.58
2016-05-13T00:49:44.643Z,949.63
2016-05-13T00:50:44.629Z,949.61
2016-05-13T00:51:44.648Z,949.66
2016-05-13T00:52:44.635Z,949.68
2016-05-13T00:53:44.637Z,949.62
2016-05-13T00:54:44.641Z,949.71
2016-05-13T00:55:44.643Z,949.72
2016-05-13T00:56:44.646Z,949.68
2016-05-13T00:57:44.634Z,949.68
2016-05-13T00:58:44.636Z,949.75
2016-05-13T00:59:44.639Z,949.72
2016-05-13T01:00:44.641Z,949.73
2016-05-13T01:01:44.670Z,949.68
2016-05-13T01:02:44.701Z,949.75
2016-05-13T01:03:44.748Z,949.75
2016-05-13T01:04:44.777Z,949.75
2016-05-13T01:05:44.824Z,949.79
2016-05-13T01:06:44.862Z,949.79
2016-05-13T01:07:44.881Z,949.76
2016-05-13T01:08:44.900Z,949.77
2016-05-13T01:09:44.918Z,949.79
2016-05-13T01:10:44.921Z,949.74
2016-05-13T01:11:44.937Z,949.73
2016-05-13T01:12:44.960Z,949.71
2016-05-13T01:13:44.953Z,949.69
2016-05-13T01:14:44.962Z,949.66
2016-05-13T01:15:44.970Z,949.65
2016-05-13T01:16:44.977Z,949.64
2016-05-13T01:17:44.965Z,949.59
2016-05-13T01:18:44.970Z,949.57
2016-05-13T01:19:44.974Z,949.55
2016-05-13T01:20:44.979Z,949.48
2016-05-13T01:21:44.983Z,949.5
2016-05-13T01:22:44.987Z,949.54
2016-05-13T01:23:44.974Z,949.51
2016-05-13T01:24:44.978Z,949.51
2016-05-13T01:25:44.982Z,949.53
2016-05-13T01:26:44.984Z,949.53
2016-05-13T01:27:44.988Z,949.52
2016-05-13T01:28:45.007Z,949.49
2016-05-13T01:29:44.993Z,949.53
2016-05-13T01:30:44.982Z,949.5
2016-05-13T01:31:44.985Z,949.55
2016-05-13T01:32:44.987Z,949.59
2016-05-13T01:33:44.990Z,949.56
2016-05-13T01:34:44.992Z,949.55
2016-05-13T01:35:44.995Z,949.57
2016-05-13T01:36:44.999Z,949.56
2016-05-13T01:37:45.001Z,949.53
2016-05-13T01:38:44.988Z,949.54
2016-05-13T01:39:44.990Z,949.48
2016-05-13T01:40:44.993Z,949.49
2016-05-13T01:41:44.996Z,949.52
2016-05-13T01:42:44.998Z,949.5
2016-05-13T01:43:45.001Z,949.49
2016-05-13T01:44:44.988Z,949.49
2016-05-13T01:45:44.990Z,949.47
2016-05-13T01:46:44.993Z,949.49
2016-05-13T01:47:44.996Z,949.46
2016-05-13T01:48:44.999Z,949.49
2016-05-13T01:49:44.987Z,949.47
2016-05-13T01:50:44.989Z,949.51
2016-05-13T01:51:44.992Z,949.53
2016-05-13T01:52:44.994Z,949.48
2016-05-13T01:53:44.997Z,949.45
2016-05-13T01:54:44.999Z,949.5
2016-05-13T01:55:45.002Z,949.48
2016-05-13T01:56:45.005Z,949.49
2016-05-13T01:57:44.992Z,949.46
2016-05-13T01:58:44.995Z,949.4
2016-05-13T01:59:44.997Z,949.4
2016-05-13T02:00:45.000Z,949.44
2016-05-13T02:01:45.002Z,949.39
2016-05-13T02:02:44.990Z,949.44
2016-05-13T02:03:45.008Z,949.43
2016-05-13T02:04:44.996Z,949.48
2016-05-13T02:05:44.998Z,949.43
2016-05-13T02:06:45.001Z,949.4
2016-05-13T02:07:45.003Z,949.37
2016-05-13T02:08:45.007Z,949.35
2016-05-13T02:09:44.993Z,949.37
2016-05-13T02:10:44.996Z,949.34
2016-05-13T02:11:44.999Z,949.35
2016-05-13T02:12:45.001Z,949.36
2016-05-13T02:13:45.003Z,949.33
2016-05-13T02:14:45.006Z,949.34
2016-05-13T02:15:44.994Z,949.38
2016-05-13T02:16:44.996Z,949.35
2016-05-13T02:17:45.343Z,949.34
2016-05-13T02:18:45.001Z,949.31
2016-05-13T02:19:45.003Z,949.34
2016-05-13T02:20:45.006Z,949.31
2016-05-13T02:21:45.009Z,949.37
2016-05-13T02:22:45.012Z,949.36
2016-05-13T02:23:45.015Z,949.33
2016-05-13T02:24:45.002Z,949.36
2016-05-13T02:25:45.005Z,949.35
2016-05-13T02:26:45.008Z,949.38
2016-05-13T02:27:45.010Z,949.39
2016-05-13T02:28:45.013Z,949.35
2016-05-13T02:29:45.016Z,949.36
2016-05-13T02:30:45.003Z,949.34
2016-05-13T02:31:45.005Z,949.38
2016-05-13T02:32:45.196Z,949.37
2016-05-13T02:33:45.010Z,949.41
2016-05-13T02:34:45.013Z,949.38
2016-05-13T02:35:45.015Z,949.36
2016-05-13T02:36:45.018Z,949.4
2016-05-13T02:37:45.006Z,949.43
2016-05-13T02:38:45.008Z,949.41
2016-05-13T02:39:45.011Z,949.39
2016-05-13T02:40:45.013Z,949.38
2016-05-13T02:41:45.016Z,949.42
2016-05-13T02:42:45.019Z,949.4
2016-05-13T02:43:45.006Z,949.35
2016-05-13T02:44:45.009Z,949.36
2016-05-13T02:45:45.012Z,949.38
2016-05-13T02:46:45.014Z,949.37
2016-05-13T02:47:45.017Z,949.37
2016-05-13T02:48:45.004Z,949.31
2016-05-13T02:49:45.038Z,949.36
2016-05-13T02:50:45.010Z,949.32
2016-05-13T02:51:45.012Z,949.28
2016-05-13T02:52:45.014Z,949.28
2016-05-13T02:53:45.017Z,949.24
2016-05-13T02:54:45.020Z,949.21
2016-05-13T02:55:45.022Z,949.23
2016-05-13T02:56:45.011Z,949.27
2016-05-13T02:57:45.013Z,949.22
2016-05-13T02:58:45.016Z,949.27
2016-05-13T02:59:45.018Z,949.31
2016-05-13T03:00:45.021Z,949.29
2016-05-13T03:01:45.024Z,949.3
2016-05-13T03:02:45.010Z,949.27
2016-05-13T03:03:45.013Z,949.3
2016-05-13T03:04:45.016Z,949.32
2016-05-13T03:05:45.019Z,949.31
2016-05-13T03:06:45.021Z,949.32
2016-05-13T03:07:45.024Z,949.34
2016-05-13T03:08:45.011Z,949.39
2016-05-13T03:09:45.014Z,949.35
2016-05-13T03:10:45.032Z,949.38
2016-05-13T03:11:45.019Z,949.4
2016-05-13T03:12:45.021Z,949.39
2016-05-13T03:13:45.024Z,949.41
2016-05-13T03:14:45.012Z,949.45
2016-05-13T03:15:45.014Z,949.45
2016-05-13T03:16:45.017Z,949.37
2016-05-13T03:17:45.020Z,949.42
2016-05-13T03:18:45.022Z,949.42
2016-05-13T03:19:45.025Z,949.44
2016-05-13T03:20:45.027Z,949.44
2016-05-13T03:21:45.014Z,949.43
2016-05-13T03:22:45.018Z,949.42
2016-05-13T03:23:45.020Z,949.41
2016-05-13T03:24:45.023Z,949.4
2016-05-13T03:25:45.025Z,949.44
2016-05-13T03:26:45.012Z,949.49
2016-05-13T03:27:45.015Z,949.45
2016-05-13T03:28:45.017Z,949.43
2016-05-13T03:29:45.020Z,949.49
2016-05-13T03:30:45.023Z,949.49
2016-05-13T03:31:45.025Z,949.47
2016-05-13T03:32:45.028Z,949.47
2016-05-13T03:33:45.031Z,949.44
2016-05-13T03:34:45.034Z,949.44
2016-05-13T03:35:45.022Z,949.45
2016-05-13T03:36:45.024Z,949.44
2016-05-13T03:37:45.027Z,949.46
2016-05-13T03:38:45.029Z,949.46
2016-05-13T03:39:45.016Z,949.48
2016-05-13T03:40:45.018Z,949.46
2016-05-13T03:41:45.022Z,949.42
2016-05-13T03:42:45.024Z,949.44
2016-05-13T03:43:45.027Z,949.43
2016-05-13T03:44:45.030Z,949.4
2016-05-13T03:45:45.032Z,949.41
2016-05-13T03:46:45.020Z,949.39
2016-05-13T03:47:45.023Z,949.45
2016-05-13T03:48:45.025Z,949.41
2016-05-13T03:49:45.028Z,949.43
2016-05-13T03:50:45.031Z,949.45
2016-05-13T03:51:45.033Z,949.46
2016-05-13T03:52:45.036Z,949.4
2016-05-13T03:53:45.039Z,949.41
2016-05-13T03:54:45.026Z,949.47
2016-05-13T03:55:45.028Z,949.46
2016-05-13T03:56:45.031Z,949.47
2016-05-13T03:57:45.033Z,949.48
2016-05-13T03:58:45.036Z,949.46
2016-05-13T03:59:45.039Z,949.49
2016-05-13T04:00:45.025Z,949.46
2016-05-13T04:01:45.029Z,949.48
2016-05-13T04:02:45.031Z,949.47
2016-05-13T04:03:45.034Z,949.43
2016-05-13T04:04:45.036Z,949.41
2016-05-13T04:05:45.039Z,949.42
2016-05-13T04:06:45.041Z,949.42
2016-05-13T04:07:45.030Z,949.4
2016-05-13T04:08:45.032Z,949.43
2016-05-13T04:09:45.035Z,949.41
2016-05-13T04:10:45.037Z,949.4
2016-05-13T04:11:45.040Z,949.4
2016-05-13T04:12:45.027Z,949.4
2016-05-13T04:13:45.030Z,949.42
2016-05-13T04:14:45.032Z,949.42
2016-05-13T04:15:45.035Z,949.39
2016-05-13T04:16:45.037Z,949.42
2016-05-13T04:17:45.212Z,949.39
2016-05-13T04:18:45.027Z,949.39
2016-05-13T04:19:45.030Z,949.39
2016-05-13T04:20:45.033Z,949.37
2016-05-13T04:21:45.035Z,949.37
2016-05-13T04:22:45.038Z,949.4
2016-05-13T04:23:45.040Z,949.42
2016-05-13T04:24:45.043Z,949.4
2016-05-13T04:25:45.045Z,949.43
2016-05-13T04:26:45.034Z,949.43
2016-05-13T04:27:45.036Z,949.44
2016-05-13T04:28:45.039Z,949.42
2016-05-13T04:29:45.042Z,949.42
2016-05-13T04:30:45.044Z,949.4
2016-05-13T04:31:45.031Z,949.41
2016-05-13T04:32:45.283Z,949.4
2016-05-13T04:33:45.036Z,949.37
2016-05-13T04:34:45.039Z,949.41
2016-05-13T04:35:45.042Z,949.43
2016-05-13T04:36:45.044Z,949.43
2016-05-13T04:37:45.047Z,949.41
2016-05-13T04:38:45.035Z,949.47
2016-05-13T04:39:45.038Z,949.47
2016-05-13T04:40:45.040Z,949.5
2016-05-13T04:41:45.043Z,949.5
2016-05-13T04:42:45.045Z,949.48
2016-05-13T04:43:45.032Z,949.52
2016-05-13T04:44:45.034Z,949.56
2016-05-13T04:45:45.038Z,949.53
2016-05-13T04:46:45.041Z,949.52
2016-05-13T04:47:45.043Z,949.55
2016-05-13T04:48:45.045Z,949.58
2016-05-13T04:49:45.048Z,949.54
2016-05-13T04:50:45.034Z,949.6
2016-05-13T04:51:45.037Z,949.57
2016-05-13T04:52:45.041Z,949.58
2016-05-13T04:53:45.043Z,949.59
2016-05-13T04:54:45.045Z,949.58
2016-05-13T04:55:45.048Z,949.62
2016-05-13T04:56:45.036Z,949.59
2016-05-13T04:57:45.039Z,949.62
2016-05-13T04:58:45.042Z,949.6
2016-05-13T04:59:45.044Z,949.58
2016-05-13T05:00:45.047Z,949.59
2016-05-13T05:01:45.049Z,949.61
2016-05-13T05:02:45.208Z,949.61
2016-05-13T05:03:45.039Z,949.63
2016-05-13T05:04:45.042Z,949.6
2016-05-13T05:05:45.045Z,949.59
2016-05-13T05:06:45.047Z,949.66
2016-05-13T05:07:45.050Z,949.61
2016-05-13T05:08:45.036Z,949.63
2016-05-13T05:09:45.055Z,949.64
2016-05-13T05:10:45.041Z,949.65
2016-05-13T05:11:45.045Z,949.63
2016-05-13T05:12:45.047Z,949.61
2016-05-13T05:13:45.050Z,949.59
2016-05-13T05:14:45.053Z,949.57
2016-05-13T05:15:45.055Z,949.62
2016-05-13T05:16:45.043Z,949.61
2016-05-13T05:17:45.045Z,949.58
2016-05-13T05:18:45.048Z,949.58
2016-05-13T05:19:45.051Z,949.59
2016-05-13T05:20:45.069Z,949.58
2016-05-13T05:21:45.040Z,949.57
2016-05-13T05:22:45.043Z,949.57
2016-05-13T05:23:45.045Z,949.56
2016-05-13T05:24:45.065Z,949.55
2016-05-13T05:25:45.051Z,949.58
2016-05-13T05:26:45.054Z,949.57
2016-05-13T05:27:45.056Z,949.55
2016-05-13T05:28:45.059Z,949.58
2016-05-13T05:29:45.061Z,949.59
2016-05-13T05:30:45.049Z,949.59
2016-05-13T05:31:45.053Z,949.59
2016-05-13T05:32:45.055Z,949.59
2016-05-13T05:33:45.058Z,949.56
2016-05-13T05:34:45.060Z,949.6
2016-05-13T05:35:45.063Z,949.63
2016-05-13T05:36:45.066Z,949.61
2016-05-13T05:37:45.068Z,949.63
2016-05-13T05:38:45.055Z,949.61
2016-05-13T05:39:45.058Z,949.64
2016-05-13T05:40:45.061Z,949.65
2016-05-13T05:41:45.063Z,949.64
2016-05-13T05:42:45.066Z,949.65
2016-05-13T05:43:45.068Z,949.67
2016-05-13T05:44:45.071Z,949.62
2016-05-13T05:45:45.057Z,949.64
2016-05-13T05:46:45.060Z,949.67
2016-05-13T05:47:45.439Z,949.67
2016-05-13T05:48:45.051Z,949.64
2016-05-13T05:49:45.054Z,949.62
2016-05-13T05:50:45.056Z,949.65
2016-05-13T05:51:45.059Z,949.68
2016-05-13T05:52:45.062Z,949.67
2016-05-13T05:53:45.064Z,949.64
2016-05-13T05:54:45.067Z,949.63
2016-05-13T05:55:45.069Z,949.61
2016-05-13T05:56:45.057Z,949.63
2016-05-13T05:57:45.059Z,949.66
2016-05-13T05:58:45.062Z,949.64
2016-05-13T05:59:45.065Z,949.66
2016-05-13T06:00:45.067Z,949.65
2016-05-13T06:01:45.070Z,949.65
2016-05-13T06:02:45.181Z,949.66
2016-05-13T06:03:45.059Z,949.68
2016-05-13T06:04:45.062Z,949.7
2016-05-13T06:05:45.065Z,949.7
2016-05-13T06:06:45.067Z,949.63
2016-05-13T06:07:45.070Z,949.66
2016-05-13T06:08:45.058Z,949.67
2016-05-13T06:09:45.061Z,949.66
2016-05-13T06:10:45.063Z,949.64
2016-05-13T06:11:45.065Z,949.66
2016-05-13T06:12:45.068Z,949.66
2016-05-13T06:13:45.071Z,949.68
2016-05-13T06:14:45.074Z,949.7
2016-05-13T06:15:45.060Z,949.7
2016-05-13T06:16:45.063Z,949.69
2016-05-13T06:17:45.066Z,949.73
2016-05-13T06:18:45.069Z,949.72
2016-05-13T06:19:45.072Z,949.75
2016-05-13T06:20:45.074Z,949.75
2016-05-13T06:21:45.062Z,949.77
2016-05-13T06:22:45.065Z,949.75
2016-05-13T06:23:45.067Z,949.77
2016-05-13T06:24:45.070Z,949.76
2016-05-13T06:25:45.072Z,949.74
2016-05-13T06:26:45.075Z,949.79
2016-05-13T06:27:45.078Z,949.78
2016-05-13T06:28:45.081Z,949.81
2016-05-13T06:29:45.067Z,949.79
2016-05-13T06:30:45.070Z,949.79
2016-05-13T06:31:45.072Z,949.82
2016-05-13T06:32:45.076Z,949.84
2016-05-13T06:33:45.078Z,949.78
2016-05-13T06:34:45.080Z,949.81
2016-05-13T06:35:45.067Z,949.81
2016-05-13T06:36:45.070Z,949.81
2016-05-13T06:37:45.072Z,949.84
2016-05-13T06:38:45.076Z,949.83
2016-05-13T06:39:45.078Z,949.81
2016-05-13T06:40:45.080Z,949.88
2016-05-13T06:41:45.068Z,949.86
2016-05-13T06:42:45.072Z,949.88
2016-05-13T06:43:45.073Z,949.86
2016-05-13T06:44:45.076Z,949.89
2016-05-13T06:45:45.063Z,949.92
2016-05-13T06:46:45.050Z,949.94
2016-05-13T06:47:45.053Z,949.89
2016-05-13T06:48:45.071Z,949.95
2016-05-13T06:49:45.058Z,949.93
2016-05-13T06:50:45.060Z,949.95
2016-05-13T06:51:45.048Z,949.94
2016-05-13T06:52:45.066Z,949.95
2016-05-13T06:53:45.084Z,949.95
2016-05-13T06:54:45.056Z,949.99
2016-05-13T06:55:45.059Z,950.01
2016-05-13T06:56:45.062Z,950
2016-05-13T06:57:45.065Z,950.02
2016-05-13T06:58:45.067Z,950.01
2016-05-13T06:59:45.069Z,950.03
2016-05-13T07:00:45.057Z,950.05
2016-05-13T07:01:45.060Z,950
2016-05-13T07:02:45.078Z,950.07
2016-05-13T07:03:45.065Z,950.02
2016-05-13T07:04:45.067Z,950.05
2016-05-13T07:05:45.055Z,950.05
2016-05-13T07:06:45.058Z,950.07
2016-05-13T07:07:45.060Z,950.06
2016-05-13T07:08:45.063Z,950.07
2016-05-13T07:09:45.065Z,950.08
2016-05-13T07:10:45.069Z,950.08
2016-05-13T07:11:45.071Z,950.08
2016-05-13T07:12:45.073Z,950.1
2016-05-13T07:13:45.077Z,950.12
2016-05-13T07:14:45.063Z,950.09
2016-05-13T07:15:45.066Z,950.08
2016-05-13T07:16:45.069Z,950.11
2016-05-13T07:17:45.071Z,950.1
2016-05-13T07:18:45.073Z,950.07
2016-05-13T07:19:45.077Z,950.1
2016-05-13T07:20:45.079Z,950.13
2016-05-13T07:21:45.066Z,950.11
2016-05-13T07:22:45.069Z,950.11
2016-05-13T07:23:45.072Z,950.09
2016-05-13T07:24:45.074Z,950.11
2016-05-13T07:25:45.076Z,950.09
2016-05-13T07:26:45.080Z,950.11
2016-05-13T07:27:45.067Z,950.11
2016-05-13T07:28:45.085Z,950.07
2016-05-13T07:29:45.073Z,950.08
2016-05-13T07:30:45.075Z,950.09
2016-05-13T07:31:45.078Z,950.09
2016-05-13T07:32:45.237Z,950.1
2016-05-13T07:33:45.083Z,950.09
2016-05-13T07:34:45.086Z,950.12
2016-05-13T07:35:45.088Z,950.09
2016-05-13T07:36:45.075Z,950.1
2016-05-13T07:37:45.078Z,950.13
2016-05-13T07:38:45.081Z,950.11
2016-05-13T07:39:45.083Z,950.1
2016-05-13T07:40:45.086Z,950.13
2016-05-13T07:41:45.089Z,950.15
2016-05-13T07:42:45.092Z,950.12
2016-05-13T07:43:45.079Z,950.17
2016-05-13T07:44:45.081Z,950.16
2016-05-13T07:45:45.083Z,950.18
2016-05-13T07:46:45.086Z,950.17
2016-05-13T07:47:45.089Z,950.17
2016-05-13T07:48:45.092Z,950.17
2016-05-13T07:49:45.095Z,950.22
2016-05-13T07:50:45.097Z,950.19
2016-05-13T07:51:45.085Z,950.22
2016-05-13T07:52:45.088Z,950.2
2016-05-13T07:53:45.090Z,950.16
2016-05-13T07:54:45.093Z,950.16
2016-05-13T07:55:45.095Z,950.16
2016-05-13T07:56:45.098Z,950.18
2016-05-13T07:57:45.101Z,950.16
2016-05-13T07:58:45.104Z,950.12
2016-05-13T07:59:45.090Z,950.1
2016-05-13T08:00:45.265Z,950.09
2016-05-13T08:01:45.096Z,950.12
2016-05-13T08:02:45.301Z,950.18
2016-05-13T08:03:45.101Z,950.15
2016-05-13T08:04:45.103Z,950.13
2016-05-13T08:05:45.107Z,950.12
2016-05-13T08:06:45.094Z,950.09
2016-05-13T08:07:45.097Z,950.11
2016-05-13T08:08:45.100Z,950.07
2016-05-13T08:09:45.103Z,950.12
2016-05-13T08:10:45.105Z,950.13
2016-05-13T08:11:45.107Z,950.11
2016-05-13T08:12:45.110Z,950.11
2016-05-13T08:13:45.097Z,950.14
2016-05-13T08:14:45.100Z,950.16
2016-05-13T08:15:45.103Z,950.16
2016-05-13T08:16:45.105Z,950.15
2016-05-13T08:17:45.592Z,950.16
2016-05-13T08:18:45.111Z,950.17
2016-05-13T08:19:45.113Z,950.15
2016-05-13T08:20:45.116Z,950.15
2016-05-13T08:21:45.118Z,950.2
2016-05-13T08:22:45.106Z,950.17
2016-05-13T08:23:45.108Z,950.18
2016-05-13T08:24:45.110Z,950.18
2016-05-13T08:25:45.114Z,950.19
2016-05-13T08:26:45.116Z,950.22
2016-05-13T08:27:45.119Z,950.24
2016-05-13T08:28:45.121Z,950.24
2016-05-13T08:29:45.109Z,950.23
2016-05-13T08:30:45.112Z,950.23
2016-05-13T08:31:45.114Z,950.26
2016-05-13T08:32:45.476Z,950.23
2016-05-13T08:33:45.120Z,950.23
2016-05-13T08:34:45.122Z,950.22
2016-05-13T08:35:45.125Z,950.23
2016-05-13T08:36:45.128Z,950.26
2016-05-13T08:37:45.131Z,950.28
2016-05-13T08:38:45.134Z,950.27
2016-05-13T08:39:45.120Z,950.28
2016-05-13T08:40:45.123Z,950.31
2016-05-13T08:41:45.125Z,950.26
2016-05-13T08:42:45.128Z,950.3
2016-05-13T08:43:45.131Z,950.3
2016-05-13T08:44:45.133Z,950.34
2016-05-13T08:45:45.136Z,950.34
2016-05-13T08:46:45.139Z,950.38
2016-05-13T08:47:45.251Z,950.39
2016-05-13T08:48:45.144Z,950.37
2016-05-13T08:49:45.131Z,950.39
2016-05-13T08:50:45.133Z,950.39
2016-05-13T08:51:45.136Z,950.39
2016-05-13T08:52:45.139Z,950.43
2016-05-13T08:53:45.142Z,950.37
2016-05-13T08:54:45.144Z,950.39
2016-05-13T08:55:45.132Z,950.4
2016-05-13T08:56:45.135Z,950.44
2016-05-13T08:57:45.152Z,950.42
2016-05-13T08:58:45.140Z,950.41
2016-05-13T08:59:45.143Z,950.39
2016-05-13T09:00:45.146Z,950.44
2016-05-13T09:01:45.148Z,950.44
2016-05-13T09:02:45.307Z,950.46
2016-05-13T09:03:45.168Z,950.47
2016-05-13T09:04:45.156Z,950.47
2016-05-13T09:05:45.143Z,950.49
2016-05-13T09:06:45.161Z,950.49
2016-05-13T09:07:45.148Z,950.52
2016-05-13T09:08:45.151Z,950.52
2016-05-13T09:09:45.154Z,950.49
2016-05-13T09:10:45.156Z,950.54
2016-05-13T09:11:45.159Z,950.58
2016-05-13T09:12:45.162Z,950.56
2016-05-13T09:13:45.165Z,950.6
2016-05-13T09:14:45.167Z,950.57
2016-05-13T09:15:45.155Z,950.59
2016-05-13T09:16:45.172Z,950.6
2016-05-13T09:17:45.160Z,950.59
2016-05-13T09:18:45.163Z,950.62
2016-05-13T09:19:45.166Z,950.62
2016-05-13T09:20:45.168Z,950.63
2016-05-13T09:21:45.171Z,950.66
2016-05-13T09:22:45.174Z,950.71
2016-05-13T09:23:45.176Z,950.69
2016-05-13T09:24:45.179Z,950.64
2016-05-13T09:25:45.182Z,950.71
2016-05-13T09:26:45.169Z,950.7
2016-05-13T09:27:45.171Z,950.67
2016-05-13T09:28:45.174Z,950.67
2016-05-13T09:29:45.176Z,950.7
2016-05-13T09:30:45.179Z,950.68
2016-05-13T09:31:45.182Z,950.68
2016-05-13T09:32:45.185Z,950.72
2016-05-13T09:33:45.187Z,950.73
2016-05-13T09:34:45.190Z,950.72
2016-05-13T09:35:45.193Z,950.74
2016-05-13T09:36:45.179Z,950.72
2016-05-13T09:37:45.198Z,950.73
2016-05-13T09:38:45.184Z,950.72
2016-05-13T09:39:45.188Z,950.74
2016-05-13T09:40:45.190Z,950.76
2016-05-13T09:41:45.193Z,950.75
2016-05-13T09:42:45.633Z,950.75
2016-05-13T09:43:45.198Z,950.76
2016-05-13T09:44:45.201Z,950.78
2016-05-13T09:45:45.203Z,950.81
2016-05-13T09:46:45.206Z,950.78
2016-05-13T09:48:04.287Z,950.79
2016-05-13T09:48:46.618Z,950.8
2016-05-13T09:49:45.214Z,950.79
2016-05-13T09:50:45.217Z,950.77
2016-05-13T09:51:45.204Z,950.82
2016-05-13T09:52:45.207Z,950.84
2016-05-13T09:53:45.210Z,950.84
2016-05-13T09:54:45.212Z,950.85
2016-05-13T09:55:45.215Z,950.86
2016-05-13T09:56:45.218Z,950.82
2016-05-13T09:57:45.220Z,950.85
2016-05-13T09:58:45.224Z,950.81
2016-05-13T09:59:45.226Z,950.87
2016-05-13T10:00:45.229Z,950.88
2016-05-13T10:01:45.231Z,950.86
2016-05-13T10:02:45.218Z,950.88
2016-05-13T10:03:45.237Z,950.86
2016-05-13T10:04:45.223Z,950.86
2016-05-13T10:05:45.226Z,950.84
2016-05-13T10:06:45.245Z,950.87
2016-05-13T10:07:45.250Z,950.88
2016-05-13T10:08:45.296Z,950.89
2016-05-13T10:09:45.341Z,950.86
2016-05-13T10:10:45.387Z,950.86
2016-05-13T10:11:45.432Z,950.89
2016-05-13T10:12:45.466Z,950.9
2016-05-13T10:13:45.484Z,950.89
2016-05-13T10:14:45.502Z,950.89
2016-05-13T10:15:45.519Z,950.88
2016-05-13T10:16:45.538Z,950.91
2016-05-13T10:17:45.535Z,950.93
2016-05-13T10:18:45.543Z,950.88
2016-05-13T10:19:45.551Z,950.96
2016-05-13T10:20:45.559Z,950.92
2016-05-13T10:21:45.567Z,950.93
2016-05-13T10:22:45.574Z,950.95
2016-05-13T10:23:45.578Z,950.93
2016-05-13T10:24:45.583Z,950.96
2016-05-13T10:25:45.588Z,950.98
2016-05-13T10:26:45.593Z,950.95
2016-05-13T10:27:45.612Z,950.98
2016-05-13T10:28:45.600Z,951.02
2016-05-13T10:29:45.603Z,951.01
2016-05-13T10:30:45.606Z,950.98
2016-05-13T10:31:45.610Z,951.01
2016-05-13T10:32:45.614Z,950.99
2016-05-13T10:33:46.398Z,951.03
2016-05-13T10:34:45.604Z,951.02
2016-05-13T10:35:45.623Z,951.04
2016-05-13T10:36:45.626Z,951.1
2016-05-13T10:37:45.613Z,951.04
2016-05-13T10:38:45.616Z,951.03
2016-05-13T10:39:45.619Z,951.08
2016-05-13T10:40:45.622Z,951.06
2016-05-13T10:41:45.624Z,951.08
2016-05-13T10:42:45.627Z,951.06
2016-05-13T10:43:45.630Z,951.07
2016-05-13T10:44:45.632Z,951.09
2016-05-13T10:45:45.635Z,951.13
2016-05-13T10:46:45.637Z,951.11
2016-05-13T10:47:45.640Z,951.13
2016-05-13T10:48:45.643Z,951.12
2016-05-13T10:49:45.646Z,951.12
2016-05-13T10:50:45.649Z,951.1
2016-05-13T10:51:45.636Z,951.16
2016-05-13T10:52:45.654Z,951.15
2016-05-13T10:53:45.640Z,951.18
2016-05-13T10:54:45.659Z,951.16
2016-05-13T10:55:45.646Z,951.17
2016-05-13T10:56:45.648Z,951.18
2016-05-13T10:57:45.652Z,951.2
2016-05-13T10:58:45.654Z,951.2
2016-05-13T10:59:45.656Z,951.22
2016-05-13T11:00:45.659Z,951.25
2016-05-13T11:01:45.662Z,951.24
2016-05-13T11:02:45.915Z,951.26
2016-05-13T11:03:45.667Z,951.25
2016-05-13T11:04:45.670Z,951.26
2016-05-13T11:05:45.658Z,951.3
2016-05-13T11:06:45.660Z,951.25
2016-05-13T11:07:45.678Z,951.25
2016-05-13T11:08:45.681Z,951.3
2016-05-13T11:09:45.669Z,951.24
2016-05-13T11:10:45.671Z,951.27
2016-05-13T11:11:45.674Z,951.27
2016-05-13T11:12:45.677Z,951.3
2016-05-13T11:13:45.679Z,951.3
2016-05-13T11:14:45.682Z,951.27
2016-05-13T11:15:45.684Z,951.29
2016-05-13T11:16:45.687Z,951.27
2016-05-13T11:17:45.690Z,951.3
2016-05-13T11:18:45.693Z,951.32
2016-05-13T11:19:45.695Z,951.28
2016-05-13T11:20:45.698Z,951.26
2016-05-13T11:21:45.685Z,951.25
2016-05-13T11:22:45.688Z,951.25
2016-05-13T11:23:46.018Z,951.27
2016-05-13T11:24:45.693Z,951.3
2016-05-13T11:25:45.696Z,951.31
2016-05-13T11:26:45.698Z,951.29
2016-05-13T11:27:45.701Z,951.29
2016-05-13T11:28:45.704Z,951.29
2016-05-13T11:29:45.706Z,951.31
2016-05-13T11:30:45.709Z,951.29
2016-05-13T11:31:45.712Z,951.31
2016-05-13T11:32:45.714Z,951.34
2016-05-13T11:33:45.717Z,951.33
2016-05-13T11:34:45.720Z,951.33
2016-05-13T11:35:45.722Z,951.35
2016-05-13T11:36:45.725Z,951.36
2016-05-13T11:37:45.712Z,951.37
2016-05-13T11:38:45.715Z,951.36
2016-05-13T11:39:45.717Z,951.38
2016-05-13T11:40:45.720Z,951.38
2016-05-13T11:41:45.722Z,951.4
2016-05-13T11:42:45.725Z,951.41
2016-05-13T11:43:45.728Z,951.39
2016-05-13T11:44:45.730Z,951.4
2016-05-13T11:45:45.733Z,951.4
2016-05-13T11:46:45.736Z,951.41
2016-05-13T11:47:45.974Z,951.43
2016-05-13T11:48:45.742Z,951.44
2016-05-13T11:49:45.745Z,951.41
2016-05-13T11:50:45.747Z,951.41
2016-05-13T11:51:45.734Z,951.44
2016-05-13T11:52:45.737Z,951.43
2016-05-13T11:53:45.755Z,951.46
2016-05-13T11:54:45.758Z,951.49
2016-05-13T11:55:45.760Z,951.5
2016-05-13T11:56:45.748Z,951.45
2016-05-13T11:57:45.766Z,951.48
2016-05-13T11:58:45.753Z,951.5
2016-05-13T11:59:45.771Z,951.5
2016-05-13T12:00:45.758Z,951.48
2016-05-13T12:01:45.762Z,951.53
2016-05-13T12:02:45.764Z,951.54
2016-05-13T12:03:45.767Z,951.52
2016-05-13T12:04:45.770Z,951.53
2016-05-13T12:05:45.772Z,951.53
2016-05-13T12:06:45.775Z,951.55
2016-05-13T12:07:45.778Z,951.6
2016-05-13T12:08:45.780Z,951.59
2016-05-13T12:09:45.783Z,951.6
2016-05-13T12:10:45.770Z,951.58
2016-05-13T12:11:45.788Z,951.59
2016-05-13T12:12:45.775Z,951.57
2016-05-13T12:13:45.777Z,951.61
2016-05-13T12:14:45.780Z,951.6
2016-05-13T12:15:45.783Z,951.59
2016-05-13T12:16:45.786Z,951.63
2016-05-13T12:17:45.788Z,951.62
2016-05-13T12:18:45.791Z,951.67
2016-05-13T12:19:45.794Z,951.68
2016-05-13T12:20:45.797Z,951.66
2016-05-13T12:21:45.799Z,951.7
2016-05-13T12:22:45.802Z,951.74
2016-05-13T12:23:45.804Z,951.73
2016-05-13T12:24:45.808Z,951.7
2016-05-13T12:25:45.810Z,951.77
2016-05-13T12:26:45.813Z,951.74
2016-05-13T12:27:45.800Z,951.76
2016-05-13T12:28:45.802Z,951.78
2016-05-13T12:29:45.837Z,951.78
2016-05-13T12:30:45.808Z,951.81
2016-05-13T12:31:45.810Z,951.81